sensor_id;sensor_type;location;lat;lon;timestamp;P1;durP1;ratioP1;P2;durP2;ratioP2
69087;SDS011;56190;43.562;5.036;2022-11-30T00:00:29;14.23;;;9.27;;
69087;SDS011;56190;43.562;5.036;2022-11-30T00:02:55;8.98;;;7.00;;
69087;SDS011;56190;43.562;5.036;2022-11-30T00:05:20;46.60;;;31.90;;
69087;SDS011;56190;43.562;5.036;2022-11-30T00:07:46;43.50;;;29.17;;
69087;SDS011;56190;43.562;5.036;2022-11-30T00:10:11;27.00;;;18.10;;
69087;SDS011;56190;43.562;5.036;2022-11-30T00:12:37;14.93;;;10.82;;
69087;SDS011;56190;43.562;5.036;2022-11-30T00:15:06;15.57;;;11.55;;
69087;SDS011;56190;43.562;5.036;2022-11-30T00:17:32;10.52;;;7.18;;
69087;SDS011;56190;43.562;5.036;2022-11-30T00:19:57;7.28;;;4.90;;
69087;SDS011;56190;43.562;5.036;2022-11-30T00:22:22;7.82;;;5.55;;
69087;SDS011;56190;43.562;5.036;2022-11-30T00:24:48;19.95;;;13.93;;
69087;SDS011;56190;43.562;5.036;2022-11-30T00:27:13;18.67;;;12.45;;
69087;SDS011;56190;43.562;5.036;2022-11-30T00:29:38;31.30;;;21.08;;
69087;SDS011;56190;43.562;5.036;2022-11-30T00:32:03;17.05;;;12.43;;
69087;SDS011;56190;43.562;5.036;2022-11-30T00:34:29;14.93;;;10.43;;
69087;SDS011;56190;43.562;5.036;2022-11-30T00:36:54;23.48;;;14.55;;
69087;SDS011;56190;43.562;5.036;2022-11-30T00:39:19;35.30;;;22.35;;
69087;SDS011;56190;43.562;5.036;2022-11-30T00:41:44;36.72;;;22.20;;
69087;SDS011;56190;43.562;5.036;2022-11-30T00:44:10;32.65;;;20.80;;
69087;SDS011;56190;43.562;5.036;2022-11-30T00:46:35;31.25;;;20.48;;
69087;SDS011;56190;43.562;5.036;2022-11-30T00:49:00;19.90;;;13.60;;
69087;SDS011;56190;43.562;5.036;2022-11-30T00:51:25;26.92;;;17.77;;
69087;SDS011;56190;43.562;5.036;2022-11-30T00:53:51;20.15;;;13.50;;
69087;SDS011;56190;43.562;5.036;2022-11-30T00:56:16;21.35;;;14.88;;
69087;SDS011;56190;43.562;5.036;2022-11-30T00:58:41;19.40;;;13.68;;
69087;SDS011;56190;43.562;5.036;2022-11-30T01:01:06;19.70;;;13.55;;
69087;SDS011;56190;43.562;5.036;2022-11-30T01:03:32;15.43;;;10.18;;
69087;SDS011;56190;43.562;5.036;2022-11-30T01:06:01;11.80;;;8.05;;
69087;SDS011;56190;43.562;5.036;2022-11-30T01:08:27;18.90;;;12.00;;
69087;SDS011;56190;43.562;5.036;2022-11-30T01:10:52;15.30;;;9.50;;
69087;SDS011;56190;43.562;5.036;2022-11-30T01:13:21;15.35;;;9.88;;
69087;SDS011;56190;43.562;5.036;2022-11-30T01:15:47;16.05;;;11.32;;
69087;SDS011;56190;43.562;5.036;2022-11-30T01:18:12;24.40;;;15.18;;
69087;SDS011;56190;43.562;5.036;2022-11-30T01:20:41;17.60;;;11.60;;
69087;SDS011;56190;43.562;5.036;2022-11-30T01:23:06;20.23;;;13.48;;
69087;SDS011;56190;43.562;5.036;2022-11-30T01:25:31;22.55;;;13.93;;
69087;SDS011;56190;43.562;5.036;2022-11-30T01:27:57;20.23;;;13.10;;
69087;SDS011;56190;43.562;5.036;2022-11-30T01:30:22;21.98;;;13.63;;
69087;SDS011;56190;43.562;5.036;2022-11-30T01:32:47;16.63;;;11.63;;
69087;SDS011;56190;43.562;5.036;2022-11-30T01:35:12;12.02;;;8.45;;
69087;SDS011;56190;43.562;5.036;2022-11-30T01:37:37;14.00;;;8.40;;
69087;SDS011;56190;43.562;5.036;2022-11-30T01:40:03;15.63;;;10.13;;
69087;SDS011;56190;43.562;5.036;2022-11-30T01:42:28;20.55;;;12.70;;
69087;SDS011;56190;43.562;5.036;2022-11-30T01:44:57;19.85;;;12.45;;
69087;SDS011;56190;43.562;5.036;2022-11-30T01:47:26;18.58;;;13.00;;
69087;SDS011;56190;43.562;5.036;2022-11-30T01:49:57;26.95;;;15.52;;
69087;SDS011;56190;43.562;5.036;2022-11-30T01:52:26;19.25;;;12.77;;
69087;SDS011;56190;43.562;5.036;2022-11-30T01:54:58;14.30;;;9.88;;
69087;SDS011;56190;43.562;5.036;2022-11-30T01:57:37;14.35;;;9.63;;
69087;SDS011;56190;43.562;5.036;2022-11-30T02:00:05;11.02;;;8.43;;
69087;SDS011;56190;43.562;5.036;2022-11-30T02:02:33;10.38;;;7.57;;
69087;SDS011;56190;43.562;5.036;2022-11-30T02:05:01;9.68;;;7.28;;
69087;SDS011;56190;43.562;5.036;2022-11-30T02:07:27;8.98;;;7.28;;
69087;SDS011;56190;43.562;5.036;2022-11-30T02:09:52;10.20;;;7.88;;
69087;SDS011;56190;43.562;5.036;2022-11-30T02:12:31;11.77;;;8.10;;
69087;SDS011;56190;43.562;5.036;2022-11-30T02:15:00;16.58;;;11.57;;
69087;SDS011;56190;43.562;5.036;2022-11-30T02:17:42;13.95;;;10.40;;
69087;SDS011;56190;43.562;5.036;2022-11-30T02:22:48;11.43;;;7.55;;
69087;SDS011;56190;43.562;5.036;2022-11-30T02:28:02;15.02;;;9.82;;
69087;SDS011;56190;43.562;5.036;2022-11-30T02:30:31;10.82;;;7.38;;
69087;SDS011;56190;43.562;5.036;2022-11-30T02:32:59;15.05;;;9.68;;
69087;SDS011;56190;43.562;5.036;2022-11-30T02:35:26;23.33;;;14.25;;
69087;SDS011;56190;43.562;5.036;2022-11-30T02:37:54;25.23;;;15.57;;
69087;SDS011;56190;43.562;5.036;2022-11-30T02:40:21;21.83;;;13.57;;
69087;SDS011;56190;43.562;5.036;2022-11-30T02:42:46;19.52;;;12.00;;
69087;SDS011;56190;43.562;5.036;2022-11-30T02:45:13;19.13;;;12.85;;
69087;SDS011;56190;43.562;5.036;2022-11-30T02:47:47;30.52;;;19.60;;
69087;SDS011;56190;43.562;5.036;2022-11-30T02:50:22;13.20;;;9.40;;
69087;SDS011;56190;43.562;5.036;2022-11-30T02:52:49;10.05;;;7.45;;
69087;SDS011;56190;43.562;5.036;2022-11-30T02:55:16;7.32;;;6.03;;
69087;SDS011;56190;43.562;5.036;2022-11-30T02:57:42;7.63;;;6.05;;
69087;SDS011;56190;43.562;5.036;2022-11-30T03:00:07;8.05;;;6.22;;
69087;SDS011;56190;43.562;5.036;2022-11-30T03:02:34;6.35;;;5.70;;
69087;SDS011;56190;43.562;5.036;2022-11-30T03:05:00;7.55;;;6.28;;
69087;SDS011;56190;43.562;5.036;2022-11-30T03:07:25;8.55;;;6.03;;
69087;SDS011;56190;43.562;5.036;2022-11-30T03:09:50;7.13;;;6.00;;
69087;SDS011;56190;43.562;5.036;2022-11-30T03:12:16;8.60;;;6.20;;
69087;SDS011;56190;43.562;5.036;2022-11-30T03:14:41;9.82;;;6.45;;
69087;SDS011;56190;43.562;5.036;2022-11-30T03:17:06;9.20;;;6.05;;
69087;SDS011;56190;43.562;5.036;2022-11-30T03:19:32;6.80;;;5.75;;
69087;SDS011;56190;43.562;5.036;2022-11-30T03:21:57;47.45;;;27.25;;
69087;SDS011;56190;43.562;5.036;2022-11-30T03:24:23;71.00;;;38.75;;
69087;SDS011;56190;43.562;5.036;2022-11-30T03:26:48;52.00;;;28.75;;
69087;SDS011;56190;43.562;5.036;2022-11-30T03:29:13;65.00;;;37.88;;
69087;SDS011;56190;43.562;5.036;2022-11-30T03:31:39;54.13;;;33.10;;
69087;SDS011;56190;43.562;5.036;2022-11-30T03:34:04;30.77;;;23.20;;
69087;SDS011;56190;43.562;5.036;2022-11-30T03:36:29;15.23;;;12.43;;
69087;SDS011;56190;43.562;5.036;2022-11-30T03:38:54;9.98;;;8.20;;
69087;SDS011;56190;43.562;5.036;2022-11-30T03:41:20;13.48;;;9.88;;
69087;SDS011;56190;43.562;5.036;2022-11-30T03:43:45;27.48;;;23.23;;
69087;SDS011;56190;43.562;5.036;2022-11-30T03:46:11;25.23;;;22.20;;
69087;SDS011;56190;43.562;5.036;2022-11-30T03:48:37;18.85;;;16.58;;
69087;SDS011;56190;43.562;5.036;2022-11-30T03:51:02;12.93;;;11.55;;
69087;SDS011;56190;43.562;5.036;2022-11-30T03:53:29;23.38;;;17.83;;
69087;SDS011;56190;43.562;5.036;2022-11-30T03:55:55;17.30;;;15.18;;
69087;SDS011;56190;43.562;5.036;2022-11-30T03:58:21;23.23;;;17.52;;
69087;SDS011;56190;43.562;5.036;2022-11-30T04:00:46;19.77;;;15.85;;
69087;SDS011;56190;43.562;5.036;2022-11-30T04:03:11;14.68;;;10.38;;
69087;SDS011;56190;43.562;5.036;2022-11-30T04:05:37;30.73;;;19.83;;
69087;SDS011;56190;43.562;5.036;2022-11-30T04:08:02;58.75;;;33.90;;
69087;SDS011;56190;43.562;5.036;2022-11-30T04:10:27;57.55;;;34.63;;
69087;SDS011;56190;43.562;5.036;2022-11-30T04:12:52;53.22;;;31.38;;
69087;SDS011;56190;43.562;5.036;2022-11-30T04:15:18;46.35;;;29.17;;
69087;SDS011;56190;43.562;5.036;2022-11-30T04:17:43;43.42;;;26.67;;
69087;SDS011;56190;43.562;5.036;2022-11-30T04:20:09;38.30;;;22.58;;
69087;SDS011;56190;43.562;5.036;2022-11-30T04:22:35;31.42;;;17.30;;
69087;SDS011;56190;43.562;5.036;2022-11-30T04:25:00;11.13;;;7.57;;
69087;SDS011;56190;43.562;5.036;2022-11-30T04:27:27;15.82;;;10.32;;
69087;SDS011;56190;43.562;5.036;2022-11-30T04:29:52;21.58;;;13.38;;
69087;SDS011;56190;43.562;5.036;2022-11-30T04:32:17;40.72;;;23.60;;
69087;SDS011;56190;43.562;5.036;2022-11-30T04:34:43;31.42;;;20.73;;
69087;SDS011;56190;43.562;5.036;2022-11-30T04:37:09;30.40;;;18.73;;
69087;SDS011;56190;43.562;5.036;2022-11-30T04:39:34;23.95;;;14.80;;
69087;SDS011;56190;43.562;5.036;2022-11-30T04:41:59;34.15;;;21.40;;
69087;SDS011;56190;43.562;5.036;2022-11-30T04:44:25;49.53;;;27.83;;
69087;SDS011;56190;43.562;5.036;2022-11-30T04:46:50;44.47;;;25.70;;
69087;SDS011;56190;43.562;5.036;2022-11-30T04:49:15;60.38;;;35.08;;
69087;SDS011;56190;43.562;5.036;2022-11-30T04:51:40;35.70;;;21.15;;
69087;SDS011;56190;43.562;5.036;2022-11-30T04:54:06;34.00;;;21.33;;
69087;SDS011;56190;43.562;5.036;2022-11-30T04:56:31;34.83;;;22.73;;
69087;SDS011;56190;43.562;5.036;2022-11-30T04:58:56;25.67;;;16.65;;
69087;SDS011;56190;43.562;5.036;2022-11-30T05:01:21;29.05;;;17.50;;
69087;SDS011;56190;43.562;5.036;2022-11-30T05:03:47;18.50;;;12.00;;
69087;SDS011;56190;43.562;5.036;2022-11-30T05:06:12;33.22;;;20.73;;
69087;SDS011;56190;43.562;5.036;2022-11-30T05:08:38;19.33;;;13.15;;
69087;SDS011;56190;43.562;5.036;2022-11-30T05:11:04;27.75;;;17.98;;
69087;SDS011;56190;43.562;5.036;2022-11-30T05:13:30;20.45;;;14.40;;
69087;SDS011;56190;43.562;5.036;2022-11-30T05:15:55;44.47;;;27.65;;
69087;SDS011;56190;43.562;5.036;2022-11-30T05:18:21;27.00;;;17.95;;
69087;SDS011;56190;43.562;5.036;2022-11-30T05:20:47;11.68;;;8.38;;
69087;SDS011;56190;43.562;5.036;2022-11-30T05:23:13;7.47;;;5.03;;
69087;SDS011;56190;43.562;5.036;2022-11-30T05:25:38;4.28;;;3.85;;
69087;SDS011;56190;43.562;5.036;2022-11-30T05:28:03;5.07;;;3.80;;
69087;SDS011;56190;43.562;5.036;2022-11-30T05:30:28;5.88;;;4.85;;
69087;SDS011;56190;43.562;5.036;2022-11-30T05:32:55;12.82;;;8.88;;
69087;SDS011;56190;43.562;5.036;2022-11-30T05:35:20;54.35;;;34.25;;
69087;SDS011;56190;43.562;5.036;2022-11-30T05:37:46;50.20;;;32.30;;
69087;SDS011;56190;43.562;5.036;2022-11-30T05:40:11;33.63;;;20.77;;
69087;SDS011;56190;43.562;5.036;2022-11-30T05:42:37;14.68;;;10.55;;
69087;SDS011;56190;43.562;5.036;2022-11-30T05:45:02;10.65;;;6.95;;
69087;SDS011;56190;43.562;5.036;2022-11-30T05:47:28;41.40;;;27.25;;
69087;SDS011;56190;43.562;5.036;2022-11-30T05:49:53;55.45;;;34.67;;
69087;SDS011;56190;43.562;5.036;2022-11-30T05:52:18;36.45;;;23.83;;
69087;SDS011;56190;43.562;5.036;2022-11-30T05:54:43;83.78;;;51.10;;
69087;SDS011;56190;43.562;5.036;2022-11-30T05:57:09;48.92;;;30.95;;
69087;SDS011;56190;43.562;5.036;2022-11-30T05:59:34;40.58;;;26.70;;
69087;SDS011;56190;43.562;5.036;2022-11-30T06:01:59;41.13;;;27.92;;
69087;SDS011;56190;43.562;5.036;2022-11-30T06:04:24;42.03;;;27.10;;
69087;SDS011;56190;43.562;5.036;2022-11-30T06:06:50;70.93;;;42.47;;
69087;SDS011;56190;43.562;5.036;2022-11-30T06:09:19;43.65;;;28.35;;
69087;SDS011;56190;43.562;5.036;2022-11-30T06:11:44;35.42;;;23.92;;
69087;SDS011;56190;43.562;5.036;2022-11-30T06:14:10;54.45;;;34.65;;
69087;SDS011;56190;43.562;5.036;2022-11-30T06:16:36;60.17;;;38.55;;
69087;SDS011;56190;43.562;5.036;2022-11-30T06:19:02;28.58;;;20.17;;
69087;SDS011;56190;43.562;5.036;2022-11-30T06:21:27;44.47;;;31.23;;
69087;SDS011;56190;43.562;5.036;2022-11-30T06:23:53;29.30;;;19.40;;
69087;SDS011;56190;43.562;5.036;2022-11-30T06:26:18;30.20;;;20.67;;
69087;SDS011;56190;43.562;5.036;2022-11-30T06:28:44;33.08;;;22.63;;
69087;SDS011;56190;43.562;5.036;2022-11-30T06:31:09;78.50;;;48.25;;
69087;SDS011;56190;43.562;5.036;2022-11-30T06:33:35;64.13;;;41.58;;
69087;SDS011;56190;43.562;5.036;2022-11-30T06:36:00;34.85;;;23.85;;
69087;SDS011;56190;43.562;5.036;2022-11-30T06:38:25;62.22;;;40.40;;
69087;SDS011;56190;43.562;5.036;2022-11-30T06:40:51;56.13;;;37.63;;
69087;SDS011;56190;43.562;5.036;2022-11-30T06:43:16;83.93;;;52.90;;
69087;SDS011;56190;43.562;5.036;2022-11-30T06:45:43;71.03;;;46.95;;
69087;SDS011;56190;43.562;5.036;2022-11-30T06:48:09;32.53;;;22.25;;
69087;SDS011;56190;43.562;5.036;2022-11-30T06:50:34;11.57;;;8.65;;
69087;SDS011;56190;43.562;5.036;2022-11-30T06:53:00;20.00;;;15.40;;
69087;SDS011;56190;43.562;5.036;2022-11-30T06:55:25;13.05;;;9.30;;
69087;SDS011;56190;43.562;5.036;2022-11-30T06:57:51;7.68;;;6.53;;
69087;SDS011;56190;43.562;5.036;2022-11-30T07:00:16;7.60;;;6.53;;
69087;SDS011;56190;43.562;5.036;2022-11-30T07:02:41;30.70;;;21.88;;
69087;SDS011;56190;43.562;5.036;2022-11-30T07:05:07;26.40;;;19.42;;
69087;SDS011;56190;43.562;5.036;2022-11-30T07:07:32;26.38;;;19.98;;
69087;SDS011;56190;43.562;5.036;2022-11-30T07:09:57;10.88;;;9.75;;
69087;SDS011;56190;43.562;5.036;2022-11-30T07:12:23;16.10;;;14.40;;
69087;SDS011;56190;43.562;5.036;2022-11-30T07:14:48;17.33;;;15.52;;
69087;SDS011;56190;43.562;5.036;2022-11-30T07:17:19;33.47;;;29.98;;
69087;SDS011;56190;43.562;5.036;2022-11-30T07:19:45;17.98;;;16.17;;
69087;SDS011;56190;43.562;5.036;2022-11-30T07:22:11;11.55;;;10.45;;
69087;SDS011;56190;43.562;5.036;2022-11-30T07:24:36;10.88;;;9.60;;
69087;SDS011;56190;43.562;5.036;2022-11-30T07:27:20;13.23;;;11.93;;
69087;SDS011;56190;43.562;5.036;2022-11-30T07:29:45;19.73;;;17.73;;
69087;SDS011;56190;43.562;5.036;2022-11-30T07:32:12;14.40;;;12.98;;
69087;SDS011;56190;43.562;5.036;2022-11-30T07:34:38;16.33;;;14.63;;
69087;SDS011;56190;43.562;5.036;2022-11-30T07:37:03;15.45;;;13.85;;
69087;SDS011;56190;43.562;5.036;2022-11-30T07:39:28;10.25;;;8.40;;
69087;SDS011;56190;43.562;5.036;2022-11-30T07:41:54;8.77;;;7.72;;
69087;SDS011;56190;43.562;5.036;2022-11-30T07:44:19;8.43;;;7.53;;
69087;SDS011;56190;43.562;5.036;2022-11-30T07:46:44;8.23;;;6.38;;
69087;SDS011;56190;43.562;5.036;2022-11-30T07:49:10;7.22;;;6.05;;
69087;SDS011;56190;43.562;5.036;2022-11-30T07:51:35;7.00;;;6.10;;
69087;SDS011;56190;43.562;5.036;2022-11-30T07:54:01;7.95;;;7.13;;
69087;SDS011;56190;43.562;5.036;2022-11-30T07:56:26;7.63;;;6.90;;
69087;SDS011;56190;43.562;5.036;2022-11-30T07:58:53;8.32;;;5.88;;
69087;SDS011;56190;43.562;5.036;2022-11-30T08:01:19;6.55;;;5.40;;
69087;SDS011;56190;43.562;5.036;2022-11-30T08:03:48;5.85;;;4.72;;
69087;SDS011;56190;43.562;5.036;2022-11-30T08:06:15;6.93;;;4.88;;
69087;SDS011;56190;43.562;5.036;2022-11-30T08:08:43;5.95;;;4.80;;
69087;SDS011;56190;43.562;5.036;2022-11-30T08:11:10;4.68;;;4.07;;
69087;SDS011;56190;43.562;5.036;2022-11-30T08:13:35;5.85;;;5.25;;
69087;SDS011;56190;43.562;5.036;2022-11-30T08:16:04;4.90;;;4.20;;
69087;SDS011;56190;43.562;5.036;2022-11-30T08:18:30;4.60;;;3.75;;
69087;SDS011;56190;43.562;5.036;2022-11-30T08:20:56;9.07;;;4.95;;
69087;SDS011;56190;43.562;5.036;2022-11-30T08:23:22;5.82;;;4.30;;
69087;SDS011;56190;43.562;5.036;2022-11-30T08:25:47;12.73;;;5.57;;
69087;SDS011;56190;43.562;5.036;2022-11-30T08:28:13;5.15;;;4.50;;
69087;SDS011;56190;43.562;5.036;2022-11-30T08:30:38;5.30;;;4.80;;
69087;SDS011;56190;43.562;5.036;2022-11-30T08:33:04;5.95;;;4.80;;
69087;SDS011;56190;43.562;5.036;2022-11-30T08:35:30;5.72;;;4.82;;
69087;SDS011;56190;43.562;5.036;2022-11-30T08:37:55;6.53;;;4.78;;
69087;SDS011;56190;43.562;5.036;2022-11-30T08:40:20;7.18;;;5.13;;
69087;SDS011;56190;43.562;5.036;2022-11-30T08:42:45;7.85;;;5.10;;
69087;SDS011;56190;43.562;5.036;2022-11-30T08:45:11;6.97;;;5.38;;
69087;SDS011;56190;43.562;5.036;2022-11-30T08:47:37;6.35;;;5.18;;
69087;SDS011;56190;43.562;5.036;2022-11-30T08:50:03;8.20;;;5.18;;
69087;SDS011;56190;43.562;5.036;2022-11-30T08:52:28;7.15;;;4.88;;
69087;SDS011;56190;43.562;5.036;2022-11-30T08:54:54;6.85;;;4.57;;
69087;SDS011;56190;43.562;5.036;2022-11-30T08:57:19;6.38;;;4.88;;
69087;SDS011;56190;43.562;5.036;2022-11-30T08:59:45;7.43;;;4.63;;
69087;SDS011;56190;43.562;5.036;2022-11-30T09:02:12;8.65;;;6.10;;
69087;SDS011;56190;43.562;5.036;2022-11-30T09:04:38;6.30;;;4.82;;
69087;SDS011;56190;43.562;5.036;2022-11-30T09:07:03;5.90;;;4.75;;
69087;SDS011;56190;43.562;5.036;2022-11-30T09:09:29;7.18;;;4.85;;
69087;SDS011;56190;43.562;5.036;2022-11-30T09:11:54;6.57;;;4.72;;
69087;SDS011;56190;43.562;5.036;2022-11-30T09:14:19;6.00;;;4.82;;
69087;SDS011;56190;43.562;5.036;2022-11-30T09:16:44;7.97;;;4.30;;
69087;SDS011;56190;43.562;5.036;2022-11-30T09:19:10;7.47;;;4.78;;
69087;SDS011;56190;43.562;5.036;2022-11-30T09:21:35;6.18;;;4.50;;
69087;SDS011;56190;43.562;5.036;2022-11-30T09:24:02;5.85;;;3.90;;
69087;SDS011;56190;43.562;5.036;2022-11-30T09:26:27;6.30;;;3.83;;
69087;SDS011;56190;43.562;5.036;2022-11-30T09:28:52;4.50;;;3.67;;
69087;SDS011;56190;43.562;5.036;2022-11-30T09:31:22;6.25;;;3.60;;
69087;SDS011;56190;43.562;5.036;2022-11-30T09:33:48;3.72;;;3.13;;
69087;SDS011;56190;43.562;5.036;2022-11-30T09:36:14;4.53;;;2.70;;
69087;SDS011;56190;43.562;5.036;2022-11-30T09:38:40;3.28;;;2.97;;
69087;SDS011;56190;43.562;5.036;2022-11-30T09:46:40;3.42;;;2.70;;
69087;SDS011;56190;43.562;5.036;2022-11-30T09:49:17;3.60;;;2.55;;
69087;SDS011;56190;43.562;5.036;2022-11-30T09:51:44;3.88;;;2.50;;
69087;SDS011;56190;43.562;5.036;2022-11-30T09:54:52;2.85;;;2.22;;
69087;SDS011;56190;43.562;5.036;2022-11-30T09:59:37;3.95;;;2.30;;
69087;SDS011;56190;43.562;5.036;2022-11-30T10:02:11;5.95;;;2.53;;
69087;SDS011;56190;43.562;5.036;2022-11-30T10:04:38;3.63;;;2.47;;
69087;SDS011;56190;43.562;5.036;2022-11-30T10:09:57;3.22;;;2.15;;
69087;SDS011;56190;43.562;5.036;2022-11-30T10:12:26;4.57;;;2.03;;
69087;SDS011;56190;43.562;5.036;2022-11-30T10:27:32;2.80;;;1.45;;
69087;SDS011;56190;43.562;5.036;2022-11-30T10:29:58;2.13;;;1.00;;
69087;SDS011;56190;43.562;5.036;2022-11-30T10:32:27;1.85;;;1.23;;
69087;SDS011;56190;43.562;5.036;2022-11-30T10:34:54;1.42;;;1.02;;
69087;SDS011;56190;43.562;5.036;2022-11-30T10:37:27;0.88;;;0.80;;
69087;SDS011;56190;43.562;5.036;2022-11-30T10:45:16;1.20;;;1.00;;
69087;SDS011;56190;43.562;5.036;2022-11-30T10:47:51;1.73;;;1.08;;
69087;SDS011;56190;43.562;5.036;2022-11-30T10:50:20;1.10;;;0.88;;
69087;SDS011;56190;43.562;5.036;2022-11-30T10:52:51;1.55;;;1.08;;
69087;SDS011;56190;43.562;5.036;2022-11-30T10:55:19;2.20;;;0.90;;
69087;SDS011;56190;43.562;5.036;2022-11-30T10:57:45;0.95;;;0.90;;
69087;SDS011;56190;43.562;5.036;2022-11-30T11:00:12;1.42;;;1.00;;
69087;SDS011;56190;43.562;5.036;2022-11-30T11:02:45;2.15;;;1.17;;
69087;SDS011;56190;43.562;5.036;2022-11-30T11:10:16;2.45;;;1.33;;
69087;SDS011;56190;43.562;5.036;2022-11-30T11:12:47;3.38;;;1.30;;
69087;SDS011;56190;43.562;5.036;2022-11-30T11:15:26;1.58;;;1.10;;
69087;SDS011;56190;43.562;5.036;2022-11-30T11:17:53;1.58;;;0.90;;
69087;SDS011;56190;43.562;5.036;2022-11-30T11:22:50;1.35;;;0.98;;
69087;SDS011;56190;43.562;5.036;2022-11-30T11:25:19;1.50;;;1.05;;
69087;SDS011;56190;43.562;5.036;2022-11-30T11:27:49;0.82;;;0.75;;
69087;SDS011;56190;43.562;5.036;2022-11-30T11:30:16;1.90;;;0.90;;
69087;SDS011;56190;43.562;5.036;2022-11-30T11:35:42;1.42;;;0.90;;
69087;SDS011;56190;43.562;5.036;2022-11-30T11:38:29;1.55;;;0.90;;
69087;SDS011;56190;43.562;5.036;2022-11-30T11:40:57;1.75;;;1.00;;
69087;SDS011;56190;43.562;5.036;2022-11-30T11:43:27;1.20;;;1.10;;
69087;SDS011;56190;43.562;5.036;2022-11-30T11:45:58;1.63;;;0.90;;
69087;SDS011;56190;43.562;5.036;2022-11-30T11:48:32;1.77;;;1.05;;
69087;SDS011;56190;43.562;5.036;2022-11-30T11:51:03;1.35;;;1.13;;
69087;SDS011;56190;43.562;5.036;2022-11-30T12:01:03;1.48;;;0.93;;
69087;SDS011;56190;43.562;5.036;2022-11-30T12:03:36;1.52;;;1.20;;
69087;SDS011;56190;43.562;5.036;2022-11-30T12:06:03;1.38;;;0.93;;
69087;SDS011;56190;43.562;5.036;2022-11-30T12:11:02;1.00;;;0.90;;
69087;SDS011;56190;43.562;5.036;2022-11-30T12:13:33;1.58;;;1.00;;
69087;SDS011;56190;43.562;5.036;2022-11-30T12:18:53;1.55;;;0.90;;
69087;SDS011;56190;43.562;5.036;2022-11-30T12:32:09;1.10;;;1.00;;
69087;SDS011;56190;43.562;5.036;2022-11-30T12:42:17;2.55;;;1.70;;
69087;SDS011;56190;43.562;5.036;2022-11-30T12:52:51;3.13;;;2.17;;
69087;SDS011;56190;43.562;5.036;2022-11-30T12:57:47;3.03;;;2.60;;
69087;SDS011;56190;43.562;5.036;2022-11-30T13:02:54;9.90;;;3.67;;
69087;SDS011;56190;43.562;5.036;2022-11-30T13:05:41;5.40;;;3.10;;
69087;SDS011;56190;43.562;5.036;2022-11-30T13:10:39;5.10;;;3.08;;
69087;SDS011;56190;43.562;5.036;2022-11-30T13:13:09;5.90;;;3.72;;
69087;SDS011;56190;43.562;5.036;2022-11-30T13:15:36;7.40;;;3.47;;
69087;SDS011;56190;43.562;5.036;2022-11-30T13:18:02;4.63;;;3.35;;
69087;SDS011;56190;43.562;5.036;2022-11-30T13:20:33;4.90;;;3.03;;
69087;SDS011;56190;43.562;5.036;2022-11-30T13:23:15;7.05;;;3.50;;
69087;SDS011;56190;43.562;5.036;2022-11-30T13:30:57;4.72;;;2.42;;
69087;SDS011;56190;43.562;5.036;2022-11-30T13:38:29;6.20;;;3.10;;
69087;SDS011;56190;43.562;5.036;2022-11-30T13:41:02;5.38;;;2.80;;
69087;SDS011;56190;43.562;5.036;2022-11-30T13:43:29;5.35;;;2.30;;
69087;SDS011;56190;43.562;5.036;2022-11-30T13:46:02;6.18;;;2.42;;
69087;SDS011;56190;43.562;5.036;2022-11-30T13:48:32;3.47;;;2.00;;
69087;SDS011;56190;43.562;5.036;2022-11-30T13:50:57;4.30;;;1.70;;
69087;SDS011;56190;43.562;5.036;2022-11-30T13:53:24;2.60;;;1.83;;
69087;SDS011;56190;43.562;5.036;2022-11-30T13:58:19;2.63;;;2.00;;
69087;SDS011;56190;43.562;5.036;2022-11-30T14:03:26;7.18;;;2.30;;
69087;SDS011;56190;43.562;5.036;2022-11-30T14:05:58;4.30;;;2.20;;
69087;SDS011;56190;43.562;5.036;2022-11-30T14:08:34;3.05;;;1.90;;
69087;SDS011;56190;43.562;5.036;2022-11-30T14:13:44;2.92;;;1.80;;
69087;SDS011;56190;43.562;5.036;2022-11-30T14:16:20;2.47;;;1.60;;
69087;SDS011;56190;43.562;5.036;2022-11-30T14:18:46;2.90;;;2.05;;
69087;SDS011;56190;43.562;5.036;2022-11-30T14:21:13;4.00;;;1.85;;
69087;SDS011;56190;43.562;5.036;2022-11-30T14:24:01;5.72;;;2.72;;
69087;SDS011;56190;43.562;5.036;2022-11-30T14:28:58;4.95;;;3.10;;
69087;SDS011;56190;43.562;5.036;2022-11-30T14:31:26;15.10;;;11.13;;
69087;SDS011;56190;43.562;5.036;2022-11-30T14:33:56;7.20;;;4.45;;
69087;SDS011;56190;43.562;5.036;2022-11-30T14:36:23;5.07;;;3.90;;
69087;SDS011;56190;43.562;5.036;2022-11-30T14:38:51;8.30;;;5.95;;
69087;SDS011;56190;43.562;5.036;2022-11-30T14:41:18;12.43;;;8.60;;
69087;SDS011;56190;43.562;5.036;2022-11-30T14:44:00;7.38;;;5.78;;
69087;SDS011;56190;43.562;5.036;2022-11-30T14:46:25;23.52;;;14.60;;
69087;SDS011;56190;43.562;5.036;2022-11-30T14:49:11;27.92;;;18.05;;
69087;SDS011;56190;43.562;5.036;2022-11-30T14:51:38;26.10;;;16.20;;
69087;SDS011;56190;43.562;5.036;2022-11-30T14:56:48;30.17;;;19.25;;
69087;SDS011;56190;43.562;5.036;2022-11-30T15:01:40;16.88;;;11.02;;
69087;SDS011;56190;43.562;5.036;2022-11-30T15:04:10;15.93;;;10.98;;
69087;SDS011;56190;43.562;5.036;2022-11-30T15:06:37;17.10;;;11.45;;
69087;SDS011;56190;43.562;5.036;2022-11-30T15:09:03;17.85;;;13.82;;
69087;SDS011;56190;43.562;5.036;2022-11-30T15:11:29;7.40;;;6.28;;
69087;SDS011;56190;43.562;5.036;2022-11-30T15:13:55;7.85;;;5.00;;
69087;SDS011;56190;43.562;5.036;2022-11-30T15:18:50;8.07;;;4.47;;
69087;SDS011;56190;43.562;5.036;2022-11-30T15:21:20;6.70;;;4.97;;
69087;SDS011;56190;43.562;5.036;2022-11-30T15:23:47;6.95;;;5.50;;
69087;SDS011;56190;43.562;5.036;2022-11-30T15:26:21;8.00;;;5.05;;
69087;SDS011;56190;43.562;5.036;2022-11-30T15:28:55;8.68;;;5.70;;
69087;SDS011;56190;43.562;5.036;2022-11-30T15:31:22;6.68;;;5.55;;
69087;SDS011;56190;43.562;5.036;2022-11-30T15:33:48;7.43;;;5.90;;
69087;SDS011;56190;43.562;5.036;2022-11-30T15:36:14;9.50;;;6.03;;
69087;SDS011;56190;43.562;5.036;2022-11-30T15:38:40;6.97;;;6.05;;
69087;SDS011;56190;43.562;5.036;2022-11-30T15:41:19;8.70;;;7.90;;
69087;SDS011;56190;43.562;5.036;2022-11-30T15:43:47;8.60;;;5.65;;
69087;SDS011;56190;43.562;5.036;2022-11-30T15:49:13;6.18;;;5.57;;
69087;SDS011;56190;43.562;5.036;2022-11-30T15:51:40;7.63;;;6.53;;
69087;SDS011;56190;43.562;5.036;2022-11-30T15:54:08;7.85;;;6.20;;
69087;SDS011;56190;43.562;5.036;2022-11-30T15:56:33;5.78;;;4.53;;
69087;SDS011;56190;43.562;5.036;2022-11-30T16:01:28;6.10;;;4.40;;
69087;SDS011;56190;43.562;5.036;2022-11-30T16:06:44;6.03;;;4.70;;
69087;SDS011;56190;43.562;5.036;2022-11-30T16:09:21;9.82;;;5.15;;
69087;SDS011;56190;43.562;5.036;2022-11-30T16:11:48;6.88;;;4.93;;
69087;SDS011;56190;43.562;5.036;2022-11-30T16:14:15;7.68;;;4.97;;
69087;SDS011;56190;43.562;5.036;2022-11-30T16:16:41;8.85;;;5.03;;
69087;SDS011;56190;43.562;5.036;2022-11-30T16:19:07;6.70;;;4.95;;
69087;SDS011;56190;43.562;5.036;2022-11-30T16:21:32;6.82;;;4.18;;
69087;SDS011;56190;43.562;5.036;2022-11-30T16:23:57;8.07;;;5.40;;
69087;SDS011;56190;43.562;5.036;2022-11-30T16:26:22;8.90;;;5.70;;
69087;SDS011;56190;43.562;5.036;2022-11-30T16:28:49;9.13;;;5.50;;
69087;SDS011;56190;43.562;5.036;2022-11-30T16:31:17;8.40;;;5.15;;
69087;SDS011;56190;43.562;5.036;2022-11-30T16:33:43;6.47;;;5.07;;
69087;SDS011;56190;43.562;5.036;2022-11-30T16:36:12;7.95;;;5.65;;
69087;SDS011;56190;43.562;5.036;2022-11-30T16:38:38;8.75;;;5.40;;
69087;SDS011;56190;43.562;5.036;2022-11-30T16:43:40;8.43;;;5.88;;
69087;SDS011;56190;43.562;5.036;2022-11-30T16:46:09;7.97;;;6.68;;